Time;durP1;ratioP1;P1;durP2;ratioP2;P2;SDS_P1;SDS_P2;PMS_P1;PMS_P2;Temp;Humidity;BMP_temperature;BMP_pressure;BME280_temperature;BME280_humidity;BME280_pressure;Samples;Min_cycle;Max_cycle;Signal;HPM_P1;HPM_P2
2021/07/24 00:00:28;;;;;;;23.93;13.70;;;17.60;99.90;;;;;;5093548;28;20505;-62
2021/07/24 00:02:55;;;;;;;20.30;15.73;;;17.70;99.90;;;;;;5100877;28;20598;-62
2021/07/24 00:05:23;;;;;;;19.03;14.17;;;17.80;99.90;;;;;;5101027;28;20597;-64
2021/07/24 00:07:50;;;;;;;22.37;15.83;;;17.90;99.90;;;;;;5097325;28;20526;-62
2021/07/24 00:10:17;;;;;;;21.43;15.20;;;17.90;99.90;;;;;;5095750;28;20817;-62
2021/07/24 00:12:44;;;;;;;20.30;13.70;;;17.90;99.90;;;;;;5098731;28;20865;-61
2021/07/24 00:15:12;;;;;;;17.17;15.17;;;18.00;99.90;;;;;;5108326;28;20428;-63
2021/07/24 00:17:39;;;;;;;17.93;15.27;;;18.10;99.90;;;;;;5098327;28;20536;-62
2021/07/24 00:20:07;;;;;;;16.13;13.97;;;18.00;99.90;;;;;;5098206;28;20735;-63
2021/07/24 00:22:34;;;;;;;22.20;13.87;;;18.00;99.90;;;;;;5085926;28;20419;-63
2021/07/24 00:25:01;;;;;;;18.87;13.77;;;18.00;99.90;;;;;;5096220;28;20431;-63
2021/07/24 00:27:28;;;;;;;18.67;13.93;;;18.00;99.90;;;;;;5099028;28;20432;-63
2021/07/24 00:29:55;;;;;;;21.10;15.87;;;18.00;99.90;;;;;;5097919;28;20452;-63
2021/07/24 00:32:22;;;;;;;16.90;14.67;;;17.70;99.90;;;;;;5098054;28;20484;-63
2021/07/24 00:34:49;;;;;;;18.60;14.57;;;17.60;99.90;;;;;;5097882;28;20443;-62
2021/07/24 00:37:19;;;;;;;20.60;14.73;;;17.40;99.90;;;;;;5097671;28;20800;-63
2021/07/24 00:39:47;;;;;;;23.37;15.50;;;17.50;99.90;;;;;;5112106;28;20614;-63
2021/07/24 00:42:21;;;;;;;16.40;13.10;;;17.70;99.90;;;;;;5083764;28;20447;-62
2021/07/24 00:44:50;;;;;;;16.40;13.37;;;17.80;99.90;;;;;;5097090;28;20433;-62
2021/07/24 00:47:19;;;;;;;15.83;13.97;;;17.80;99.90;;;;;;5095653;28;20476;-63
2021/07/24 00:49:48;;;;;;;15.23;13.63;;;17.60;99.90;;;;;;5097987;28;20448;-62
2021/07/24 00:52:15;;;;;;;18.30;14.20;;;17.50;99.90;;;;;;5097005;28;20510;-62
2021/07/24 00:54:43;;;;;;;15.37;13.77;;;17.30;99.90;;;;;;5098221;28;20450;-62
2021/07/24 00:57:14;;;;;;;18.67;15.30;;;17.10;99.90;;;;;;5097282;28;20435;-62
2021/07/24 00:59:42;;;;;;;20.00;13.70;;;17.10;99.90;;;;;;5098340;28;20448;-62
2021/07/24 01:02:09;;;;;;;19.03;14.53;;;17.20;99.90;;;;;;5113186;28;20437;-62
2021/07/24 01:04:36;;;;;;;20.07;14.33;;;17.30;99.90;;;;;;5097935;28;20431;-63
2021/07/24 01:07:06;;;;;;;16.77;13.80;;;17.40;99.90;;;;;;5097076;28;20465;-63
2021/07/24 01:09:33;;;;;;;21.50;13.97;;;17.60;99.90;;;;;;5097504;28;20752;-63
2021/07/24 01:12:02;;;;;;;15.40;12.83;;;17.70;99.90;;;;;;5096681;28;20554;-63
2021/07/24 01:14:32;;;;;;;22.13;14.70;;;18.00;99.90;;;;;;5097686;28;20504;-63
2021/07/24 01:17:01;;;;;;;17.30;13.00;;;18.20;99.90;;;;;;5096549;28;20507;-62
2021/07/24 01:19:28;;;;;;;17.53;13.10;;;18.00;99.90;;;;;;5100222;28;20472;-62
2021/07/24 01:21:56;;;;;;;15.07;13.30;;;17.90;99.90;;;;;;5103501;28;20422;-62
2021/07/24 01:24:23;;;;;;;16.80;13.20;;;18.10;99.90;;;;;;5093824;28;20471;-62
2021/07/24 01:26:51;;;;;;;16.27;14.53;;;17.90;99.90;;;;;;5104849;28;20463;-62
2021/07/24 01:29:20;;;;;;;15.73;12.13;;;17.80;99.90;;;;;;5106632;28;20445;-63
2021/07/24 01:31:47;;;;;;;19.80;12.23;;;17.70;99.90;;;;;;5087658;28;20483;-62
2021/07/24 01:34:14;;;;;;;16.53;13.10;;;17.60;99.90;;;;;;5096687;28;20492;-62
2021/07/24 01:36:42;;;;;;;15.57;12.63;;;17.80;99.90;;;;;;5101673;28;20499;-62
2021/07/24 01:39:09;;;;;;;18.17;13.10;;;17.70;99.90;;;;;;5101251;28;20446;-61
2021/07/24 01:41:43;;;;;;;17.77;12.70;;;17.60;99.90;;;;;;5100550;28;20501;-63
2021/07/24 01:44:10;;;;;;;15.00;12.70;;;17.50;99.90;;;;;;5101430;28;20454;-62
2021/07/24 01:46:38;;;;;;;19.27;13.67;;;17.60;99.90;;;;;;5100062;28;20431;-62
2021/07/24 01:49:11;;;;;;;17.00;14.43;;;17.60;99.90;;;;;;5113504;28;20487;-62
2021/07/24 01:54:54;;;;;;;17.80;15.67;;;17.50;99.90;;;;;;5096484;28;20406;-64
2021/07/24 01:57:23;;;;;;;21.37;14.47;;;17.50;99.90;;;;;;5096424;28;20830;-62
2021/07/24 01:59:53;;;;;;;20.00;15.60;;;17.40;99.90;;;;;;5096674;28;20507;-62
2021/07/24 02:02:20;;;;;;;21.00;15.10;;;17.20;99.90;;;;;;5097104;28;20441;-62
2021/07/24 02:04:51;;;;;;;20.23;14.93;;;17.20;99.90;;;;;;5074693;28;20417;-62
2021/07/24 02:07:21;;;;;;;18.23;14.33;;;17.20;99.90;;;;;;5096543;28;20420;-63
2021/07/24 02:09:49;;;;;;;19.07;14.87;;;17.20;99.90;;;;;;5098275;28;20659;-63
2021/07/24 02:12:16;;;;;;;18.90;14.27;;;17.10;99.90;;;;;;5095842;28;20514;-62
2021/07/24 02:14:43;;;;;;;15.30;12.77;;;17.00;99.90;;;;;;5087585;28;20746;-62
2021/07/24 02:17:10;;;;;;;16.20;13.27;;;16.90;99.90;;;;;;5088413;28;20438;-62
2021/07/24 02:19:38;;;;;;;17.53;14.53;;;16.90;99.90;;;;;;5096383;28;20508;-61
2021/07/24 02:22:05;;;;;;;17.10;13.47;;;16.80;99.90;;;;;;5096098;28;20612;-63
2021/07/24 02:24:32;;;;;;;15.43;13.03;;;16.80;99.90;;;;;;5096177;28;20501;-62
2021/07/24 02:26:59;;;;;;;14.53;12.80;;;16.70;99.90;;;;;;5091531;28;20417;-62
2021/07/24 02:29:26;;;;;;;26.07;12.53;;;16.60;99.90;;;;;;5081235;28;20490;-62
2021/07/24 02:31:55;;;;;;;14.30;12.47;;;16.50;99.90;;;;;;5084739;28;20547;-62
2021/07/24 02:34:23;;;;;;;16.60;13.33;;;16.50;99.90;;;;;;5098895;28;20412;-62
2021/07/24 02:36:50;;;;;;;15.87;12.97;;;16.60;99.90;;;;;;5092598;28;20659;-62
2021/07/24 02:39:17;;;;;;;16.90;13.87;;;16.60;99.90;;;;;;5102576;28;20443;-62
2021/07/24 02:41:44;;;;;;;18.30;12.80;;;16.50;99.90;;;;;;5103230;28;20448;-62
2021/07/24 02:44:11;;;;;;;16.03;12.13;;;16.50;99.90;;;;;;5101763;28;20804;-63
2021/07/24 02:46:38;;;;;;;19.13;12.60;;;16.50;99.90;;;;;;5094474;28;20442;-61
2021/07/24 02:49:07;;;;;;;14.30;12.80;;;16.40;99.90;;;;;;5102535;28;20743;-62
2021/07/24 02:51:34;;;;;;;19.30;13.87;;;16.40;99.90;;;;;;5101943;28;20818;-62
2021/07/24 02:54:01;;;;;;;17.67;14.03;;;16.30;99.90;;;;;;5102190;28;20413;-63
2021/07/24 02:56:28;;;;;;;17.50;12.67;;;16.20;99.90;;;;;;5102642;28;20441;-64
2021/07/24 02:58:55;;;;;;;14.33;12.70;;;16.20;99.90;;;;;;5101067;28;20421;-61
2021/07/24 03:01:22;;;;;;;16.70;12.20;;;16.20;99.90;;;;;;5086214;28;20447;-61
2021/07/24 03:03:49;;;;;;;15.10;12.90;;;16.20;99.90;;;;;;5102824;28;20501;-61
2021/07/24 03:06:16;;;;;;;15.80;13.23;;;16.20;99.90;;;;;;5102015;28;20425;-63
2021/07/24 03:08:43;;;;;;;19.20;13.83;;;16.30;99.90;;;;;;5102338;28;20539;-63
2021/07/24 03:11:10;;;;;;;17.10;12.67;;;16.30;99.90;;;;;;5102828;28;20484;-63
2021/07/24 03:13:37;;;;;;;19.47;14.10;;;16.20;99.90;;;;;;5101629;28;20435;-62
2021/07/24 03:16:04;;;;;;;14.23;12.40;;;16.30;99.90;;;;;;5102024;28;20658;-62
2021/07/24 03:18:31;;;;;;;20.00;13.63;;;16.20;99.90;;;;;;5100190;28;20446;-63
2021/07/24 03:20:58;;;;;;;15.00;11.63;;;16.20;99.90;;;;;;5101903;28;20449;-62
2021/07/24 03:23:25;;;;;;;16.60;13.27;;;16.20;99.90;;;;;;5102341;28;20441;-64
2021/07/24 03:25:52;;;;;;;18.03;13.97;;;16.20;99.90;;;;;;5102396;28;20462;-63
2021/07/24 03:28:20;;;;;;;15.93;12.53;;;16.40;99.90;;;;;;5102427;28;20414;-62
2021/07/24 03:30:47;;;;;;;19.60;14.17;;;16.30;99.90;;;;;;5101972;28;20781;-63
2021/07/24 03:33:13;;;;;;;13.57;12.13;;;16.20;99.90;;;;;;5101971;28;20628;-64
2021/07/24 03:35:40;;;;;;;19.77;13.90;;;16.30;99.90;;;;;;5102197;28;20463;-63
2021/07/24 03:38:07;;;;;;;16.43;13.17;;;16.30;99.90;;;;;;5102169;28;20443;-62
2021/07/24 03:40:36;;;;;;;14.53;13.03;;;16.50;99.90;;;;;;5104837;28;20444;-64
2021/07/24 03:43:03;;;;;;;15.70;11.57;;;16.60;99.90;;;;;;5098890;28;20792;-63
2021/07/24 03:45:33;;;;;;;17.30;13.77;;;16.70;99.90;;;;;;5091307;28;20479;-63
2021/07/24 03:48:01;;;;;;;17.23;13.33;;;17.00;99.90;;;;;;5092682;28;20447;-62
2021/07/24 03:50:29;;;;;;;13.20;11.43;;;17.10;99.90;;;;;;5084955;28;20744;-63
2021/07/24 03:52:56;;;;;;;18.43;12.30;;;17.20;99.90;;;;;;5098538;28;20422;-63
2021/07/24 03:55:24;;;;;;;14.10;12.47;;;17.30;99.90;;;;;;5098244;28;20483;-63
2021/07/24 03:57:54;;;;;;;16.00;12.77;;;17.40;99.90;;;;;;5098713;28;20790;-62
2021/07/24 04:00:22;;;;;;;21.17;12.83;;;17.50;99.90;;;;;;5098052;28;20480;-63
2021/07/24 04:02:49;;;;;;;13.37;11.40;;;17.60;99.90;;;;;;5099084;28;20485;-62
2021/07/24 04:05:18;;;;;;;16.67;13.43;;;17.80;99.90;;;;;;5098001;28;20464;-64
2021/07/24 04:07:45;;;;;;;20.73;11.50;;;18.10;99.90;;;;;;5098580;28;20537;-63
2021/07/24 04:10:13;;;;;;;16.00;12.30;;;18.10;99.90;;;;;;5112342;28;20643;-64
2021/07/24 04:12:41;;;;;;;16.13;13.20;;;18.20;99.90;;;;;;5086066;28;20477;-64
2021/07/24 04:15:09;;;;;;;16.23;11.33;;;18.40;99.90;;;;;;5098209;28;20438;-63
2021/07/24 04:17:36;;;;;;;16.07;11.37;;;18.50;99.90;;;;;;5095876;28;20672;-63
2021/07/24 04:20:04;;;;;;;22.57;12.47;;;18.70;99.90;;;;;;5098704;28;20468;-63
2021/07/24 04:22:31;;;;;;;13.27;11.90;;;18.70;99.90;;;;;;5097697;28;20515;-63
2021/07/24 04:24:58;;;;;;;16.07;11.60;;;18.90;99.90;;;;;;5098035;28;20409;-63
2021/07/24 04:27:25;;;;;;;14.40;11.10;;;19.20;99.90;;;;;;5098294;28;20458;-63
2021/07/24 04:29:52;;;;;;;17.80;11.57;;;19.20;99.90;;;;;;5097839;28;20421;-63
2021/07/24 04:32:19;;;;;;;13.17;11.87;;;19.00;99.90;;;;;;5108966;28;20477;-63
2021/07/24 04:34:45;;;;;;;11.90;10.60;;;18.80;99.90;;;;;;5100446;28;20413;-62
2021/07/24 04:37:13;;;;;;;15.83;12.83;;;18.80;99.90;;;;;;5089132;28;20442;-62
2021/07/24 04:39:39;;;;;;;13.73;12.30;;;18.70;99.90;;;;;;5098540;28;20442;-65
2021/07/24 04:42:07;;;;;;;13.27;11.80;;;18.60;99.90;;;;;;5097707;28;20670;-62
2021/07/24 04:44:34;;;;;;;15.00;11.90;;;18.60;99.90;;;;;;5097631;28;20417;-62
2021/07/24 04:47:01;;;;;;;15.60;10.70;;;18.60;99.90;;;;;;5111420;28;20418;-62
2021/07/24 04:49:28;;;;;;;14.77;12.07;;;18.90;99.90;;;;;;5097943;28;20463;-63
2021/07/24 04:51:55;;;;;;;16.30;12.20;;;19.00;99.90;;;;;;5111030;28;20532;-63
2021/07/24 04:54:22;;;;;;;16.20;12.97;;;19.10;99.90;;;;;;5097054;28;20448;-63
2021/07/24 04:56:49;;;;;;;16.27;13.40;;;19.30;99.90;;;;;;5096837;28;20425;-64
2021/07/24 04:59:16;;;;;;;20.10;13.17;;;19.40;99.90;;;;;;5097305;28;20470;-63
2021/07/24 05:01:43;;;;;;;16.23;13.97;;;19.60;99.90;;;;;;5097881;28;20774;-64
2021/07/24 05:04:12;;;;;;;13.00;11.23;;;19.50;99.90;;;;;;5110007;28;20418;-62
2021/07/24 05:06:39;;;;;;;20.73;12.90;;;19.70;99.90;;;;;;5097543;28;20454;-63
2021/07/24 05:09:09;;;;;;;15.30;13.77;;;19.70;99.90;;;;;;5096499;28;20418;-64
2021/07/24 05:11:36;;;;;;;17.67;13.03;;;19.80;99.90;;;;;;5084591;28;20483;-64
2021/07/24 05:14:03;;;;;;;20.10;13.20;;;19.80;99.90;;;;;;5095116;28;20588;-64
2021/07/24 05:16:30;;;;;;;13.20;11.73;;;19.90;99.90;;;;;;5097235;28;20440;-62
2021/07/24 05:18:59;;;;;;;14.70;11.83;;;19.90;99.90;;;;;;5095285;28;20661;-61
2021/07/24 05:21:26;;;;;;;14.07;12.37;;;19.90;99.90;;;;;;5096217;28;20642;-63
2021/07/24 05:23:53;;;;;;;12.93;11.57;;;20.00;99.90;;;;;;5109220;28;20444;-62
2021/07/24 05:26:20;;;;;;;12.60;11.30;;;20.10;99.90;;;;;;5080639;28;20435;-63
2021/07/24 05:28:48;;;;;;;11.87;10.77;;;20.20;99.90;;;;;;5096922;28;20458;-64
2021/07/24 05:31:16;;;;;;;13.10;11.80;;;20.40;99.90;;;;;;5095973;28;20441;-64
2021/07/24 05:33:44;;;;;;;12.80;11.47;;;20.50;99.90;;;;;;5096789;28;20607;-64
2021/07/24 05:36:11;;;;;;;13.90;11.13;;;20.70;99.90;;;;;;5095373;28;20755;-63
2021/07/24 05:38:38;;;;;;;16.00;11.23;;;20.80;99.90;;;;;;5083470;28;20423;-62
2021/07/24 05:41:05;;;;;;;13.57;11.03;;;21.00;99.90;;;;;;5110499;28;20486;-63
2021/07/24 05:43:33;;;;;;;12.10;10.90;;;21.10;99.90;;;;;;5096839;28;20607;-63
2021/07/24 05:46:01;;;;;;;13.37;11.73;;;21.30;99.90;;;;;;5108335;28;20471;-63
2021/07/24 05:48:28;;;;;;;12.50;11.30;;;21.50;99.90;;;;;;5098345;28;20741;-63
2021/07/24 05:50:55;;;;;;;13.20;11.90;;;21.70;99.90;;;;;;5096231;28;20423;-64
2021/07/24 05:53:22;;;;;;;10.87;9.47;;;22.00;99.90;;;;;;5095805;28;20506;-64
2021/07/24 05:55:49;;;;;;;11.77;10.57;;;22.50;99.90;;;;;;5105602;28;20420;-63
2021/07/24 05:58:16;;;;;;;11.00;10.10;;;22.70;99.90;;;;;;5101504;28;20612;-62
2021/07/24 06:00:43;;;;;;;11.57;10.57;;;23.00;99.90;;;;;;5096423;28;20513;-64
2021/07/24 06:03:10;;;;;;;11.93;10.93;;;23.50;99.90;;;;;;5096121;28;20709;-63
2021/07/24 06:05:38;;;;;;;13.50;12.13;;;23.70;99.90;;;;;;5108625;28;20414;-63
2021/07/24 06:08:05;;;;;;;12.67;11.20;;;23.90;99.90;;;;;;5095727;28;20585;-63
2021/07/24 06:10:32;;;;;;;12.23;11.00;;;23.80;99.90;;;;;;5099275;28;20738;-64
2021/07/24 06:12:59;;;;;;;12.53;11.47;;;24.20;99.90;;;;;;5106308;28;20548;-63
2021/07/24 06:15:26;;;;;;;12.63;11.53;;;24.40;99.90;;;;;;5111517;28;20413;-65
2021/07/24 06:17:53;;;;;;;13.70;12.40;;;24.60;99.80;;;;;;5106265;28;20482;-63
2021/07/24 06:20:20;;;;;;;13.43;12.13;;;24.20;99.90;;;;;;5096608;28;20443;-63
2021/07/24 06:22:47;;;;;;;11.60;10.50;;;23.90;99.90;;;;;;5095855;28;20484;-64
2021/07/24 06:25:14;;;;;;;12.63;11.53;;;24.20;99.90;;;;;;5095980;28;20417;-64
2021/07/24 06:27:42;;;;;;;11.00;10.03;;;24.00;99.90;;;;;;5095119;28;20503;-64
2021/07/24 06:30:10;;;;;;;12.90;11.60;;;24.30;99.90;;;;;;5082285;28;20454;-63
2021/07/24 06:32:37;;;;;;;13.33;11.80;;;24.70;99.90;;;;;;5095515;28;20520;-63
2021/07/24 06:35:04;;;;;;;12.40;11.17;;;25.00;98.50;;;;;;5081306;28;20443;-63
2021/07/24 06:37:31;;;;;;;11.83;10.77;;;25.20;97.70;;;;;;5096668;28;20443;-63
2021/07/24 06:39:58;;;;;;;12.93;11.60;;;25.20;97.60;;;;;;5095321;28;20496;-63
2021/07/24 06:42:25;;;;;;;12.10;11.07;;;25.40;97.50;;;;;;5095702;28;20439;-63
2021/07/24 06:44:53;;;;;;;13.00;11.87;;;25.90;97.00;;;;;;5095921;28;20439;-62
2021/07/24 06:47:21;;;;;;;11.10;10.20;;;26.70;96.30;;;;;;5096196;28;20762;-63
2021/07/24 06:49:49;;;;;;;13.90;11.93;;;26.80;94.90;;;;;;5109791;28;20763;-63
2021/07/24 06:52:16;;;;;;;13.10;11.80;;;27.00;94.40;;;;;;5095859;28;20485;-61
2021/07/24 06:54:43;;;;;;;11.13;10.30;;;27.10;94.90;;;;;;5109332;28;20444;-62
2021/07/24 06:57:10;;;;;;;13.33;12.03;;;27.50;93.80;;;;;;5095391;28;20492;-61
2021/07/24 06:59:37;;;;;;;13.10;11.17;;;28.40;93.10;;;;;;5096000;28;20444;-62
2021/07/24 07:02:05;;;;;;;12.07;11.10;;;28.60;91.90;;;;;;5095086;28;20446;-64
2021/07/24 07:04:33;;;;;;;13.13;11.87;;;29.60;90.20;;;;;;5095577;28;20443;-63
2021/07/24 07:07:00;;;;;;;14.00;12.77;;;30.80;87.20;;;;;;5094780;28;20447;-63
2021/07/24 07:09:27;;;;;;;13.27;12.27;;;31.40;83.60;;;;;;5096277;28;20449;-63
2021/07/24 07:11:58;;;;;;;13.23;12.33;;;31.50;82.60;;;;;;5094246;28;20552;-64
2021/07/24 07:14:25;;;;;;;16.03;14.50;;;32.70;79.00;;;;;;5095785;28;20442;-64
2021/07/24 07:16:53;;;;;;;16.67;15.27;;;34.50;72.80;;;;;;5081381;28;20466;-63
2021/07/24 07:19:22;;;;;;;15.97;14.70;;;35.20;69.30;;;;;;5095284;28;20640;-63
2021/07/24 07:21:49;;;;;;;14.80;13.90;;;35.40;67.20;;;;;;5081598;28;20638;-63
2021/07/24 07:24:16;;;;;;;14.30;13.03;;;35.80;65.30;;;;;;5099258;28;20439;-63
2021/07/24 07:26:44;;;;;;;14.70;13.70;;;36.40;63.50;;;;;;5099863;28;20469;-63
2021/07/24 07:29:11;;;;;;;15.40;14.30;;;36.30;62.30;;;;;;5098954;28;20684;-64
2021/07/24 07:31:38;;;;;;;14.73;13.73;;;35.70;61.60;;;;;;5081202;28;20672;-63
2021/07/24 07:34:05;;;;;;;14.67;13.67;;;35.60;62.20;;;;;;5099017;28;20442;-63
2021/07/24 07:36:32;;;;;;;15.83;14.67;;;37.20;59.00;;;;;;5102224;28;20783;-62
2021/07/24 07:39:00;;;;;;;15.90;14.70;;;39.20;56.30;;;;;;5109056;28;20443;-64
2021/07/24 07:41:27;;;;;;;15.93;14.83;;;38.60;54.90;;;;;;5113085;28;20483;-63
2021/07/24 07:43:54;;;;;;;16.27;15.17;;;38.80;54.10;;;;;;5098284;28;21275;-64
2021/07/24 07:46:21;;;;;;;15.70;14.73;;;38.80;54.20;;;;;;5097937;28;20435;-62
2021/07/24 07:48:48;;;;;;;15.70;14.70;;;37.90;54.20;;;;;;5098773;28;20465;-62
2021/07/24 07:51:15;;;;;;;15.30;14.20;;;37.90;53.80;;;;;;5085571;28;20454;-62
2021/07/24 07:53:42;;;;;;;14.10;12.97;;;38.00;53.40;;;;;;5083093;28;20471;-63
2021/07/24 07:56:10;;;;;;;15.27;14.37;;;37.70;54.80;;;;;;5099124;28;20443;-63
2021/07/24 07:58:37;;;;;;;17.43;16.13;;;37.10;54.90;;;;;;5097820;28;20443;-62
2021/07/24 08:01:12;;;;;;;14.10;13.30;;;37.50;54.50;;;;;;5098254;28;20692;-61
2021/07/24 08:03:40;;;;;;;14.37;13.23;;;38.90;53.20;;;;;;5098464;28;20443;-63
2021/07/24 08:06:08;;;;;;;13.40;12.47;;;38.10;51.50;;;;;;5098777;28;20450;-65
2021/07/24 08:08:35;;;;;;;14.40;13.60;;;37.70;51.80;;;;;;5097824;28;20616;-64
2021/07/24 08:11:03;;;;;;;13.67;12.93;;;37.90;50.50;;;;;;5098351;28;20543;-62
2021/07/24 08:13:30;;;;;;;13.57;12.57;;;36.40;51.40;;;;;;5098645;28;20490;-64
2021/07/24 08:15:57;;;;;;;14.27;13.27;;;34.80;54.50;;;;;;5084198;28;20506;-63
2021/07/24 08:18:25;;;;;;;13.17;12.07;;;35.10;54.30;;;;;;5097204;28;20736;-65
2021/07/24 08:20:52;;;;;;;14.63;13.00;;;35.60;53.00;;;;;;5097954;28;20447;-62
2021/07/24 08:23:19;;;;;;;12.67;11.77;;;36.10;52.80;;;;;;5104246;28;20640;-64
2021/07/24 08:25:46;;;;;;;15.13;13.77;;;37.60;50.80;;;;;;5102580;28;20501;-63
2021/07/24 08:28:13;;;;;;;14.30;13.40;;;36.90;50.90;;;;;;5099531;28;20439;-64
2021/07/24 08:30:40;;;;;;;13.40;12.50;;;36.30;52.50;;;;;;5100822;28;20500;-65
2021/07/24 08:33:07;;;;;;;14.07;13.07;;;36.30;51.10;;;;;;5096974;28;20475;-65
2021/07/24 08:35:38;;;;;;;13.47;12.63;;;36.50;51.20;;;;;;5103719;28;20492;-63
2021/07/24 08:38:05;;;;;;;15.60;14.20;;;37.30;50.70;;;;;;5083551;28;20757;-63
2021/07/24 08:40:32;;;;;;;14.90;13.80;;;38.40;49.10;;;;;;5100638;28;20479;-64
2021/07/24 08:43:04;;;;;;;13.73;12.83;;;39.50;47.90;;;;;;5097696;28;20793;-64
2021/07/24 08:45:31;;;;;;;12.63;11.90;;;38.40;47.90;;;;;;5098150;28;20931;-65
2021/07/24 08:48:08;;;;;;;15.50;13.90;;;37.20;49.70;;;;;;5101726;28;20450;-64
2021/07/24 08:50:36;;;;;;;14.80;13.57;;;36.30;50.90;;;;;;5097080;28;20427;-63
2021/07/24 08:53:05;;;;;;;12.70;11.90;;;36.60;50.40;;;;;;5101182;28;20669;-64
2021/07/24 08:55:39;;;;;;;13.17;12.40;;;37.60;49.30;;;;;;5096557;28;20439;-64
2021/07/24 08:58:10;;;;;;;14.30;13.20;;;39.20;45.30;;;;;;5097295;28;20815;-63
2021/07/24 09:00:37;;;;;;;13.30;12.60;;;40.10;45.20;;;;;;5098334;28;20439;-63
2021/07/24 09:03:04;;;;;;;14.37;13.37;;;39.50;44.20;;;;;;5097091;28;20447;-63
2021/07/24 09:05:35;;;;;;;13.70;12.90;;;38.10;45.70;;;;;;5099229;28;20696;-64
2021/07/24 09:08:10;;;;;;;13.43;12.60;;;37.40;46.00;;;;;;5097145;28;20443;-63
2021/07/24 09:10:37;;;;;;;12.87;12.13;;;38.00;45.50;;;;;;5096680;28;20466;-63
2021/07/24 09:13:04;;;;;;;13.10;12.30;;;37.10;47.30;;;;;;5096385;28;20817;-64
2021/07/24 09:15:32;;;;;;;13.03;12.00;;;37.00;48.10;;;;;;5096699;28;20565;-63
2021/07/24 09:17:59;;;;;;;13.80;12.80;;;36.00;48.20;;;;;;5095445;28;20489;-62
2021/07/24 09:20:27;;;;;;;13.07;12.27;;;35.40;49.10;;;;;;5097237;28;20451;-64
2021/07/24 09:22:54;;;;;;;11.73;11.03;;;35.10;51.10;;;;;;5096090;28;20469;-63
2021/07/24 09:25:22;;;;;;;13.70;12.80;;;35.10;51.20;;;;;;5097315;28;20439;-62
2021/07/24 09:27:51;;;;;;;13.50;12.60;;;35.30;50.40;;;;;;5083114;28;20820;-63
2021/07/24 09:30:24;;;;;;;13.30;12.40;;;33.90;52.30;;;;;;5096785;28;20470;-63
2021/07/24 09:33:04;;;;;;;12.83;12.03;;;33.10;54.00;;;;;;5096098;28;20474;-64
2021/07/24 09:35:35;;;;;;;12.00;11.20;;;33.60;53.70;;;;;;5099537;28;20763;-65
2021/07/24 09:38:04;;;;;;;12.40;11.20;;;33.20;53.60;;;;;;5101691;28;20435;-63
2021/07/24 09:40:34;;;;;;;11.43;10.63;;;31.60;55.60;;;;;;5097409;28;20495;-63
2021/07/24 09:43:02;;;;;;;11.57;10.77;;;30.20;58.10;;;;;;5096547;28;20456;-64
2021/07/24 09:45:30;;;;;;;12.30;11.60;;;29.50;60.60;;;;;;5097206;28;20459;-63
2021/07/24 09:48:23;;;;;;;11.23;10.37;;;29.30;62.00;;;;;;5103748;28;20446;-63
2021/07/24 09:50:51;;;;;;;11.57;10.77;;;29.10;62.30;;;;;;5090193;28;20652;-62
2021/07/24 09:53:41;;;;;;;11.50;10.80;;;28.70;63.40;;;;;;5096133;28;20669;-61
2021/07/24 09:56:17;;;;;;;11.97;10.73;;;28.60;63.80;;;;;;5096254;28;20480;-64
2021/07/24 09:58:45;;;;;;;12.50;11.70;;;28.60;63.80;;;;;;5096854;28;20553;-63
2021/07/24 10:01:18;;;;;;;10.67;10.07;;;28.40;63.40;;;;;;5096598;28;20509;-61
2021/07/24 10:03:50;;;;;;;12.00;11.03;;;28.50;62.10;;;;;;5096300;28;20443;-63
2021/07/24 10:06:18;;;;;;;13.33;12.33;;;28.20;62.20;;;;;;5100509;28;20438;-64
2021/07/24 10:08:51;;;;;;;10.77;10.00;;;28.00;63.20;;;;;;5099557;28;20450;-63
2021/07/24 10:11:18;;;;;;;11.60;10.90;;;28.20;62.90;;;;;;5098634;28;20454;-61
2021/07/24 10:13:46;;;;;;;11.00;10.30;;;28.40;62.10;;;;;;5092941;28;20739;-64
2021/07/24 10:16:13;;;;;;;11.57;10.80;;;28.60;61.00;;;;;;5095694;28;20447;-62
2021/07/24 10:18:41;;;;;;;12.30;11.20;;;28.40;61.50;;;;;;5094582;28;20462;-62
2021/07/24 10:21:08;;;;;;;10.93;10.13;;;28.40;61.30;;;;;;5095730;28;20450;-63
2021/07/24 10:23:36;;;;;;;10.87;10.10;;;28.20;60.80;;;;;;5096200;28;20500;-63
2021/07/24 10:26:15;;;;;;;13.80;12.80;;;28.20;63.10;;;;;;5095765;28;20514;-63
2021/07/24 10:29:01;;;;;;;12.30;11.43;;;28.10;60.70;;;;;;5095899;28;20435;-63
2021/07/24 10:31:44;;;;;;;11.00;10.20;;;28.10;60.50;;;;;;5093292;28;20435;-61
2021/07/24 10:34:25;;;;;;;11.43;10.73;;;28.20;61.00;;;;;;5088433;28;20501;-63
2021/07/24 10:36:52;;;;;;;11.40;10.57;;;28.30;60.00;;;;;;5095628;28;20442;-63
2021/07/24 10:39:20;;;;;;;11.20;10.30;;;28.20;60.90;;;;;;5096166;28;20439;-62
2021/07/24 10:41:59;;;;;;;10.60;10.00;;;28.30;59.80;;;;;;5099676;28;20803;-61
2021/07/24 10:44:37;;;;;;;11.83;10.93;;;28.30;58.90;;;;;;5099637;28;20451;-63
2021/07/24 10:47:04;;;;;;;12.17;11.37;;;28.30;60.00;;;;;;5101988;28;20475;-63
2021/07/24 10:49:34;;;;;;;10.37;9.77;;;28.30;59.60;;;;;;5098551;28;20435;-63
2021/07/24 10:52:03;;;;;;;11.20;10.40;;;28.30;59.30;;;;;;5100931;28;20434;-61
2021/07/24 10:54:53;;;;;;;11.00;10.30;;;28.20;58.50;;;;;;5101201;28;20861;-64
2021/07/24 10:57:55;;;;;;;11.93;11.03;;;28.10;59.20;;;;;;5105324;28;20664;-62
2021/07/24 11:00:22;;;;;;;11.50;10.70;;;28.00;60.70;;;;;;5103170;28;20489;-62
2021/07/24 11:02:50;;;;;;;10.43;9.60;;;28.10;61.00;;;;;;5100798;28;20492;-64
2021/07/24 11:05:28;;;;;;;10.53;9.80;;;28.10;60.40;;;;;;5098956;28;20450;-63
2021/07/24 11:07:58;;;;;;;11.03;10.10;;;28.00;58.90;;;;;;5094346;28;20550;-61
2021/07/24 11:10:26;;;;;;;10.90;10.20;;;28.10;61.10;;;;;;5098390;28;20688;-62
2021/07/24 11:12:53;;;;;;;11.00;10.20;;;28.30;59.80;;;;;;5097874;28;20490;-63
2021/07/24 11:15:40;;;;;;;10.67;10.07;;;28.60;60.00;;;;;;5102213;28;20499;-62
2021/07/24 11:18:27;;;;;;;10.83;10.13;;;29.00;58.20;;;;;;5090861;28;20493;-62
2021/07/24 11:20:54;;;;;;;10.97;10.17;;;29.00;58.20;;;;;;5098881;28;20447;-63
2021/07/24 11:23:23;;;;;;;10.67;9.97;;;29.00;58.00;;;;;;5099421;28;20506;-64
2021/07/24 11:25:51;;;;;;;10.93;10.13;;;29.10;57.70;;;;;;5099786;28;20603;-62
2021/07/24 11:28:21;;;;;;;10.87;10.17;;;29.00;57.70;;;;;;5098791;28;20431;-63
2021/07/24 11:31:05;;;;;;;10.60;9.87;;;28.80;57.70;;;;;;5099606;28;20438;-64
2021/07/24 11:33:32;;;;;;;10.90;10.20;;;28.30;58.80;;;;;;5099237;28;20483;-63
2021/07/24 11:36:08;;;;;;;11.47;10.60;;;28.10;57.40;;;;;;5099258;28;20453;-64
2021/07/24 11:38:37;;;;;;;10.67;9.97;;;28.00;59.10;;;;;;5096836;28;21013;-63
2021/07/24 11:41:11;;;;;;;11.17;10.37;;;27.90;58.60;;;;;;5099380;28;20455;-63
2021/07/24 11:43:38;;;;;;;10.90;10.03;;;27.80;58.50;;;;;;5092946;28;20440;-63
2021/07/24 11:46:07;;;;;;;10.07;9.37;;;27.80;59.20;;;;;;5091326;28;20562;-63
2021/07/24 11:48:35;;;;;;;11.23;10.43;;;28.00;59.30;;;;;;5103753;28;20413;-63
2021/07/24 11:51:08;;;;;;;11.50;10.60;;;28.30;58.70;;;;;;5120100;28;20442;-61
2021/07/24 11:53:36;;;;;;;11.50;10.50;;;28.50;58.40;;;;;;5113367;28;21076;-62
2021/07/24 11:56:09;;;;;;;11.30;10.50;;;28.60;58.30;;;;;;5090827;28;20453;-63
2021/07/24 11:58:37;;;;;;;10.80;9.93;;;28.70;58.00;;;;;;5098394;28;20461;-63
2021/07/24 12:01:19;;;;;;;10.73;10.03;;;28.80;58.20;;;;;;5098670;28;20446;-63
2021/07/24 12:03:46;;;;;;;10.50;9.67;;;28.80;57.20;;;;;;5097174;28;20818;-63
2021/07/24 12:06:14;;;;;;;10.93;10.03;;;28.60;57.40;;;;;;5098517;28;20443;-61
2021/07/24 12:08:46;;;;;;;11.43;10.63;;;28.50;56.80;;;;;;5099962;28;20451;-63
2021/07/24 12:11:17;;;;;;;11.03;10.13;;;28.30;57.90;;;;;;5100320;28;20447;-63
2021/07/24 12:13:45;;;;;;;10.47;9.63;;;28.20;59.30;;;;;;5098596;28;20715;-61
2021/07/24 12:16:13;;;;;;;10.73;9.97;;;28.00;58.50;;;;;;5098737;28;20669;-61
2021/07/24 12:18:44;;;;;;;10.77;9.97;;;28.00;58.10;;;;;;5099531;28;20479;-63
2021/07/24 12:21:14;;;;;;;10.50;9.80;;;28.10;57.30;;;;;;5098952;28;20741;-63
2021/07/24 12:23:55;;;;;;;10.60;9.60;;;28.30;57.00;;;;;;5100660;28;20439;-65
2021/07/24 12:26:45;;;;;;;11.63;10.73;;;28.30;58.00;;;;;;5098290;28;20430;-60
2021/07/24 12:29:12;;;;;;;10.47;9.83;;;28.50;56.80;;;;;;5080562;28;20447;-62
2021/07/24 12:31:50;;;;;;;11.50;10.70;;;28.80;56.70;;;;;;5099836;28;20439;-63
2021/07/24 12:34:25;;;;;;;12.40;11.43;;;28.80;56.20;;;;;;5097857;28;20475;-62
2021/07/24 12:36:57;;;;;;;10.00;9.30;;;28.50;56.70;;;;;;5092323;28;20447;-62
2021/07/24 12:39:30;;;;;;;11.53;10.73;;;28.30;56.60;;;;;;5090254;28;20443;-62